Roadside, Pennsylvania
Current Conditions -  °F | °C
As of 4:53 AM on Friday 28 Nov 2014 (Local Time) from KRYT Reporting Station
Broken Clouds Broken Clouds  
Wind Chill: 30°   Ceiling: 4800
Heat Index: 30°   Visibility: 10mi
Dew Point: 23°   Wind: 3mph
Humidity: 75%   Direction: NA
Pressure: 30.16"   Gusts: NA
Location:  39.7777°N, 77.5693°W
Report Text: KRYT 280953Z AUTO VRB03KT 10SM SCT037 BKN048 M01/M05 A3016 RMK AO2 SLP228 T10111050 $
Loading
Personal Weather Stations






























Interactive Weather Map New forecast layout! Learn more

10-Day Weather Forecast

Advertisements
Track Severe Weather on mobile